<?xml version='1.0' encoding='UTF-8'?><gpx version="1.1" creator="JPX - https://github.com/jenetics/jpx" xmlns="http://www.topografix.com/GPX/1/1"><trk><trkseg><trkpt lat="43.6438223" lon="11.4425998"><ele>233.0</ele><time>2026-04-11T12:14:29.689Z</time></trkpt><trkpt lat="43.6437569" lon="11.4425298"><ele>233.0</ele><time>2026-04-11T12:14:30.689Z</time></trkpt><trkpt lat="43.6436693" lon="11.4424244"><ele>233.0</ele><time>2026-04-11T12:14:32.689Z</time></trkpt><trkpt lat="43.6436074" lon="11.4423367"><ele>233.0</ele><time>2026-04-11T12:14:34.689Z</time></trkpt><trkpt lat="43.6435353" lon="11.4422645"><ele>233.0</ele><time>2026-04-11T12:14:36.689Z</time></trkpt><trkpt lat="43.6434637" lon="11.442198"><ele>232.66666666666669</ele><time>2026-04-11T12:14:38.689Z</time></trkpt><trkpt lat="43.6434032" lon="11.4421361"><ele>232.33333333333334</ele><time>2026-04-11T12:14:40.689Z</time></trkpt><trkpt lat="43.6433315" lon="11.4420768"><ele>232.0</ele><time>2026-04-11T12:14:42.689Z</time></trkpt><trkpt lat="43.6432621" lon="11.4419959"><ele>231.66666666666669</ele><time>2026-04-11T12:14:44.689Z</time></trkpt><trkpt lat="43.6432081" lon="11.4419224"><ele>231.33333333333334</ele><time>2026-04-11T12:14:46.689Z</time></trkpt><trkpt lat="43.6431432" lon="11.441822"><ele>231.0</ele><time>2026-04-11T12:14:48.689Z</time></trkpt><trkpt lat="43.6430643" lon="11.4417033"><ele>231.0</ele><time>2026-04-11T12:14:50.689Z</time></trkpt><trkpt lat="43.6429878" lon="11.4416122"><ele>231.00000000000003</ele><time>2026-04-11T12:14:52.689Z</time></trkpt><trkpt lat="43.6429096" lon="11.4415091"><ele>231.00000000000003</ele><time>2026-04-11T12:14:54.689Z</time></trkpt><trkpt lat="43.6428358" lon="11.4413934"><ele>231.0</ele><time>2026-04-11T12:14:56.689Z</time></trkpt><trkpt lat="43.6427632" lon="11.441289"><ele>231.0</ele><time>2026-04-11T12:14:58.689Z</time></trkpt><trkpt lat="43.6426723" lon="11.4411831"><ele>231.4</ele><time>2026-04-11T12:15:00.69Z</time></trkpt><trkpt lat="43.642585" lon="11.441095"><ele>231.8</ele><time>2026-04-11T12:15:02.689Z</time></trkpt><trkpt lat="43.6424828" lon="11.4410183"><ele>232.20000000000002</ele><time>2026-04-11T12:15:04.689Z</time></trkpt><trkpt lat="43.6423741" lon="11.4409334"><ele>232.60000000000002</ele><time>2026-04-11T12:15:06.689Z</time></trkpt><trkpt lat="43.6423173" lon="11.4408945"><ele>233.0</ele><time>2026-04-11T12:15:07.689Z</time></trkpt><trkpt lat="43.6422291" lon="11.4408263"><ele>233.0</ele><time>2026-04-11T12:15:09.689Z</time></trkpt><trkpt lat="43.6421596" lon="11.4407752"><ele>233.0</ele><time>2026-04-11T12:15:11.689Z</time></trkpt><trkpt lat="43.6421034" lon="11.4407186"><ele>233.0</ele><time>2026-04-11T12:15:13.689Z</time></trkpt><trkpt lat="43.6420433" lon="11.4406644"><ele>233.0</ele><time>2026-04-11T12:15:15.689Z</time></trkpt><trkpt lat="43.6419815" lon="11.4406274"><ele>233.0</ele><time>2026-04-11T12:15:17.689Z</time></trkpt><trkpt lat="43.6419225" lon="11.4405814"><ele>233.0</ele><time>2026-04-11T12:15:19.689Z</time></trkpt><trkpt lat="43.6418565" lon="11.4405393"><ele>233.0</ele><time>2026-04-11T12:15:21.689Z</time></trkpt><trkpt lat="43.6417974" lon="11.4404987"><ele>234.28571428571428</ele><time>2026-04-11T12:15:23.689Z</time></trkpt><trkpt lat="43.6417403" lon="11.4404591"><ele>235.57142857142856</ele><time>2026-04-11T12:15:25.689Z</time></trkpt><trkpt lat="43.6416653" lon="11.4404358"><ele>236.85714285714283</ele><time>2026-04-11T12:15:27.689Z</time></trkpt><trkpt lat="43.6415851" lon="11.4404083"><ele>238.14285714285714</ele><time>2026-04-11T12:15:29.69Z</time></trkpt><trkpt lat="43.6415165" lon="11.4403887"><ele>239.4285714285714</ele><time>2026-04-11T12:15:31.689Z</time></trkpt><trkpt lat="43.641443" lon="11.4403613"><ele>240.7142857142857</ele><time>2026-04-11T12:15:33.689Z</time></trkpt><trkpt lat="43.6413697" lon="11.4403377"><ele>242.0</ele><time>2026-04-11T12:15:35.689Z</time></trkpt><trkpt lat="43.6413015" lon="11.4402842"><ele>242.00000000000003</ele><time>2026-04-11T12:15:37.689Z</time></trkpt><trkpt lat="43.6412241" lon="11.4401934"><ele>242.0</ele><time>2026-04-11T12:15:39.689Z</time></trkpt><trkpt lat="43.6411598" lon="11.4401372"><ele>242.0</ele><time>2026-04-11T12:15:41.689Z</time></trkpt><trkpt lat="43.64109" lon="11.4400584"><ele>242.0</ele><time>2026-04-11T12:15:43.689Z</time></trkpt><trkpt lat="43.6410255" lon="11.439965"><ele>242.00000000000003</ele><time>2026-04-11T12:15:45.689Z</time></trkpt><trkpt lat="43.6409733" lon="11.4399154"><ele>242.0</ele><time>2026-04-11T12:15:47.689Z</time></trkpt><trkpt lat="43.6409086" lon="11.4398537"><ele>242.50000000000003</ele><time>2026-04-11T12:15:49.689Z</time></trkpt><trkpt lat="43.6408423" lon="11.4398004"><ele>243.0</ele><time>2026-04-11T12:15:51.689Z</time></trkpt><trkpt lat="43.64077" lon="11.4397839"><ele>243.5</ele><time>2026-04-11T12:15:53.689Z</time></trkpt><trkpt lat="43.640703" lon="11.4397889"><ele>244.0</ele><time>2026-04-11T12:15:55.689Z</time></trkpt><trkpt lat="43.6406178" lon="11.4397855"><ele>244.50000000000003</ele><time>2026-04-11T12:15:57.69Z</time></trkpt><trkpt lat="43.6405284" lon="11.4397867"><ele>245.0</ele><time>2026-04-11T12:16:00.689Z</time></trkpt><trkpt lat="43.6404636" lon="11.4397612"><ele>245.00000000000003</ele><time>2026-04-11T12:16:02.689Z</time></trkpt><trkpt lat="43.6403894" lon="11.4397232"><ele>245.0</ele><time>2026-04-11T12:16:04.689Z</time></trkpt><trkpt lat="43.6402971" lon="11.4396739"><ele>245.0</ele><time>2026-04-11T12:16:06.689Z</time></trkpt><trkpt lat="43.6401848" lon="11.4396874"><ele>245.0</ele><time>2026-04-11T12:16:08.689Z</time></trkpt><trkpt lat="43.6401199" lon="11.4396967"><ele>245.00000000000003</ele><time>2026-04-11T12:16:09.689Z</time></trkpt><trkpt lat="43.6400321" lon="11.4397079"><ele>245.0</ele><time>2026-04-11T12:16:10.689Z</time></trkpt><trkpt lat="43.6399436" lon="11.4397211"><ele>244.16666666666669</ele><time>2026-04-11T12:16:11.689Z</time></trkpt><trkpt lat="43.6398599" lon="11.4397212"><ele>243.33333333333334</ele><time>2026-04-11T12:16:12.689Z</time></trkpt><trkpt lat="43.6397881" lon="11.4397111"><ele>242.5</ele><time>2026-04-11T12:16:13.689Z</time></trkpt><trkpt lat="43.6396951" lon="11.4396644"><ele>241.66666666666669</ele><time>2026-04-11T12:16:14.689Z</time></trkpt><trkpt lat="43.6396222" lon="11.4396319"><ele>240.83333333333334</ele><time>2026-04-11T12:16:15.689Z</time></trkpt><trkpt lat="43.639541" lon="11.4395925"><ele>240.0</ele><time>2026-04-11T12:16:16.689Z</time></trkpt><trkpt lat="43.6394553" lon="11.439533"><ele>242.83333333333334</ele><time>2026-04-11T12:16:17.689Z</time></trkpt><trkpt lat="43.639379" lon="11.4394839"><ele>245.66666666666669</ele><time>2026-04-11T12:16:18.689Z</time></trkpt><trkpt lat="43.6393141" lon="11.4394262"><ele>248.5</ele><time>2026-04-11T12:16:19.689Z</time></trkpt><trkpt lat="43.6392745" lon="11.4393405"><ele>251.33333333333334</ele><time>2026-04-11T12:16:20.689Z</time></trkpt><trkpt lat="43.6392406" lon="11.4392443"><ele>254.16666666666669</ele><time>2026-04-11T12:16:21.689Z</time></trkpt><trkpt lat="43.6391924" lon="11.4391578"><ele>257.0</ele><time>2026-04-11T12:16:22.689Z</time></trkpt><trkpt lat="43.6391438" lon="11.4390566"><ele>257.0</ele><time>2026-04-11T12:16:23.689Z</time></trkpt><trkpt lat="43.6391067" lon="11.4389609"><ele>257.0</ele><time>2026-04-11T12:16:24.689Z</time></trkpt><trkpt lat="43.6390488" lon="11.4388147"><ele>257.0</ele><time>2026-04-11T12:16:26.689Z</time></trkpt><trkpt lat="43.6389596" lon="11.4387179"><ele>257.0</ele><time>2026-04-11T12:16:28.689Z</time></trkpt><trkpt lat="43.6389032" lon="11.4386704"><ele>257.0</ele><time>2026-04-11T12:16:29.689Z</time></trkpt><trkpt lat="43.6388043" lon="11.43857"><ele>256.83333333333337</ele><time>2026-04-11T12:16:31.689Z</time></trkpt><trkpt lat="43.6387462" lon="11.4385363"><ele>256.6666666666667</ele><time>2026-04-11T12:16:32.69Z</time></trkpt><trkpt lat="43.6386269" lon="11.4385393"><ele>256.5</ele><time>2026-04-11T12:16:34.689Z</time></trkpt><trkpt lat="43.6385612" lon="11.4385528"><ele>256.3333333333333</ele><time>2026-04-11T12:16:35.689Z</time></trkpt><trkpt lat="43.6384938" lon="11.438555"><ele>256.16666666666663</ele><time>2026-04-11T12:16:36.69Z</time></trkpt><trkpt lat="43.6383906" lon="11.4385023"><ele>256.0</ele><time>2026-04-11T12:16:38.689Z</time></trkpt><trkpt lat="43.6383235" lon="11.4383554"><ele>255.99999999999997</ele><time>2026-04-11T12:16:40.689Z</time></trkpt><trkpt lat="43.6382909" lon="11.4382544"><ele>256.0</ele><time>2026-04-11T12:16:41.689Z</time></trkpt><trkpt lat="43.6382665" lon="11.4381691"><ele>256.0</ele><time>2026-04-11T12:16:42.69Z</time></trkpt><trkpt lat="43.6381677" lon="11.4380503"><ele>256.0</ele><time>2026-04-11T12:16:44.689Z</time></trkpt><trkpt lat="43.6380977" lon="11.4379802"><ele>255.99999999999997</ele><time>2026-04-11T12:16:45.689Z</time></trkpt><trkpt lat="43.6380334" lon="11.4379226"><ele>256.0</ele><time>2026-04-11T12:16:46.689Z</time></trkpt><trkpt lat="43.6379328" lon="11.4378517"><ele>257.25</ele><time>2026-04-11T12:16:48.689Z</time></trkpt><trkpt lat="43.6378396" lon="11.4377773"><ele>258.5</ele><time>2026-04-11T12:16:50.689Z</time></trkpt><trkpt lat="43.6377296" lon="11.4376913"><ele>259.75</ele><time>2026-04-11T12:16:52.689Z</time></trkpt><trkpt lat="43.6376335" lon="11.4375786"><ele>261.0</ele><time>2026-04-11T12:16:54.689Z</time></trkpt><trkpt lat="43.6375367" lon="11.4374758"><ele>261.0</ele><time>2026-04-11T12:16:56.689Z</time></trkpt><trkpt lat="43.6374638" lon="11.4374116"><ele>261.0</ele><time>2026-04-11T12:16:58.689Z</time></trkpt><trkpt lat="43.6375401" lon="11.4374905"><ele>261.0</ele><time>2026-04-11T12:17:28.689Z</time></trkpt><trkpt lat="43.6376328" lon="11.4375685"><ele>261.0</ele><time>2026-04-11T12:17:30.689Z</time></trkpt><trkpt lat="43.6377247" lon="11.4376738"><ele>261.0</ele><time>2026-04-11T12:17:32.689Z</time></trkpt><trkpt lat="43.6377817" lon="11.4377314"><ele>261.14285714285717</ele><time>2026-04-11T12:17:33.689Z</time></trkpt><trkpt lat="43.6378407" lon="11.437779"><ele>261.2857142857143</ele><time>2026-04-11T12:17:34.689Z</time></trkpt><trkpt lat="43.6379027" lon="11.4378222"><ele>261.42857142857144</ele><time>2026-04-11T12:17:35.689Z</time></trkpt><trkpt lat="43.6379592" lon="11.4378672"><ele>261.57142857142856</ele><time>2026-04-11T12:17:36.689Z</time></trkpt><trkpt lat="43.6380139" lon="11.4379251"><ele>261.7142857142857</ele><time>2026-04-11T12:17:37.689Z</time></trkpt><trkpt lat="43.638068" lon="11.4379734"><ele>261.8571428571429</ele><time>2026-04-11T12:17:38.689Z</time></trkpt><trkpt lat="43.6381268" lon="11.4380267"><ele>262.0</ele><time>2026-04-11T12:17:39.689Z</time></trkpt><trkpt lat="43.6381783" lon="11.438079"><ele>260.8</ele><time>2026-04-11T12:17:40.689Z</time></trkpt><trkpt lat="43.6382222" lon="11.4381423"><ele>259.6</ele><time>2026-04-11T12:17:41.689Z</time></trkpt><trkpt lat="43.6382596" lon="11.438213"><ele>258.40000000000003</ele><time>2026-04-11T12:17:42.689Z</time></trkpt><trkpt lat="43.6383131" lon="11.4383457"><ele>257.2</ele><time>2026-04-11T12:17:44.689Z</time></trkpt><trkpt lat="43.6383601" lon="11.4384792"><ele>256.0</ele><time>2026-04-11T12:17:46.689Z</time></trkpt><trkpt lat="43.6384504" lon="11.4385739"><ele>256.0</ele><time>2026-04-11T12:17:48.689Z</time></trkpt><trkpt lat="43.6385591" lon="11.4385849"><ele>256.0</ele><time>2026-04-11T12:17:50.689Z</time></trkpt><trkpt lat="43.6386679" lon="11.4385477"><ele>256.0</ele><time>2026-04-11T12:17:52.689Z</time></trkpt><trkpt lat="43.63873" lon="11.4385322"><ele>256.0</ele><time>2026-04-11T12:17:53.689Z</time></trkpt><trkpt lat="43.6388275" lon="11.4385787"><ele>256.0</ele><time>2026-04-11T12:17:55.689Z</time></trkpt><trkpt lat="43.6389297" lon="11.4386615"><ele>256.2</ele><time>2026-04-11T12:17:57.689Z</time></trkpt><trkpt lat="43.6389881" lon="11.4387201"><ele>256.40000000000003</ele><time>2026-04-11T12:17:58.689Z</time></trkpt><trkpt lat="43.6390704" lon="11.4388117"><ele>256.6</ele><time>2026-04-11T12:18:00.689Z</time></trkpt><trkpt lat="43.6391359" lon="11.4389316"><ele>256.8</ele><time>2026-04-11T12:18:02.689Z</time></trkpt><trkpt lat="43.6391883" lon="11.4390769"><ele>257.0</ele><time>2026-04-11T12:18:04.689Z</time></trkpt><trkpt lat="43.639236" lon="11.4392325"><ele>257.0</ele><time>2026-04-11T12:18:06.689Z</time></trkpt><trkpt lat="43.6392853" lon="11.4393855"><ele>257.0</ele><time>2026-04-11T12:18:08.689Z</time></trkpt><trkpt lat="43.6393305" lon="11.4394559"><ele>257.0</ele><time>2026-04-11T12:18:09.689Z</time></trkpt><trkpt lat="43.6393778" lon="11.4395178"><ele>257.0</ele><time>2026-04-11T12:18:10.689Z</time></trkpt><trkpt lat="43.6394828" lon="11.4395774"><ele>257.0</ele><time>2026-04-11T12:18:12.69Z</time></trkpt><trkpt lat="43.639564" lon="11.4396047"><ele>254.16666666666669</ele><time>2026-04-11T12:18:14.689Z</time></trkpt><trkpt lat="43.6396392" lon="11.4396486"><ele>251.33333333333334</ele><time>2026-04-11T12:18:16.689Z</time></trkpt><trkpt lat="43.6397344" lon="11.4396945"><ele>248.5</ele><time>2026-04-11T12:18:18.689Z</time></trkpt><trkpt lat="43.6397977" lon="11.439706"><ele>245.66666666666669</ele><time>2026-04-11T12:18:19.689Z</time></trkpt><trkpt lat="43.639919" lon="11.4397115"><ele>242.83333333333334</ele><time>2026-04-11T12:18:21.689Z</time></trkpt><trkpt lat="43.6399968" lon="11.4396948"><ele>240.0</ele><time>2026-04-11T12:18:22.69Z</time></trkpt><trkpt lat="43.6400783" lon="11.4396759"><ele>240.0</ele><time>2026-04-11T12:18:23.689Z</time></trkpt><trkpt lat="43.6401538" lon="11.4396561"><ele>240.0</ele><time>2026-04-11T12:18:24.689Z</time></trkpt><trkpt lat="43.6402725" lon="11.4396653"><ele>240.0</ele><time>2026-04-11T12:18:26.689Z</time></trkpt><trkpt lat="43.6403751" lon="11.4396948"><ele>240.0</ele><time>2026-04-11T12:18:28.689Z</time></trkpt><trkpt lat="43.6404375" lon="11.4397105"><ele>240.0</ele><time>2026-04-11T12:18:30.689Z</time></trkpt><trkpt lat="43.6405089" lon="11.4397205"><ele>240.0</ele><time>2026-04-11T12:18:32.689Z</time></trkpt><trkpt lat="43.6406116" lon="11.4397043"><ele>241.0</ele><time>2026-04-11T12:18:34.689Z</time></trkpt><trkpt lat="43.6407198" lon="11.4397271"><ele>242.0</ele><time>2026-04-11T12:18:36.689Z</time></trkpt><trkpt lat="43.6408143" lon="11.4397371"><ele>243.0</ele><time>2026-04-11T12:18:38.689Z</time></trkpt><trkpt lat="43.6409002" lon="11.4397932"><ele>244.0</ele><time>2026-04-11T12:18:40.689Z</time></trkpt><trkpt lat="43.640998" lon="11.439881"><ele>245.0</ele><time>2026-04-11T12:18:42.689Z</time></trkpt><trkpt lat="43.6410918" lon="11.4399785"><ele>244.4</ele><time>2026-04-11T12:18:44.689Z</time></trkpt><trkpt lat="43.6411759" lon="11.4400817"><ele>243.8</ele><time>2026-04-11T12:18:46.689Z</time></trkpt><trkpt lat="43.6412434" lon="11.4401807"><ele>243.2</ele><time>2026-04-11T12:18:48.689Z</time></trkpt><trkpt lat="43.6413045" lon="11.4402351"><ele>242.6</ele><time>2026-04-11T12:18:50.689Z</time></trkpt><trkpt lat="43.6413947" lon="11.4402897"><ele>242.0</ele><time>2026-04-11T12:18:52.69Z</time></trkpt><trkpt lat="43.6415015" lon="11.4403435"><ele>242.0</ele><time>2026-04-11T12:18:54.689Z</time></trkpt><trkpt lat="43.6416289" lon="11.4403855"><ele>242.0</ele><time>2026-04-11T12:18:56.689Z</time></trkpt><trkpt lat="43.6416937" lon="11.4404249"><ele>242.0</ele><time>2026-04-11T12:18:57.689Z</time></trkpt><trkpt lat="43.6417636" lon="11.4404758"><ele>242.0</ele><time>2026-04-11T12:18:58.689Z</time></trkpt><trkpt lat="43.6418431" lon="11.4405296"><ele>242.0</ele><time>2026-04-11T12:18:59.689Z</time></trkpt><trkpt lat="43.6419189" lon="11.4405803"><ele>240.50000000000003</ele><time>2026-04-11T12:19:00.689Z</time></trkpt><trkpt lat="43.6419946" lon="11.4406477"><ele>239.0</ele><time>2026-04-11T12:19:01.689Z</time></trkpt><trkpt lat="43.6420686" lon="11.440712"><ele>237.5</ele><time>2026-04-11T12:19:02.689Z</time></trkpt><trkpt lat="43.642134" lon="11.4407718"><ele>236.0</ele><time>2026-04-11T12:19:03.689Z</time></trkpt><trkpt lat="43.6422059" lon="11.440832"><ele>234.50000000000003</ele><time>2026-04-11T12:19:04.689Z</time></trkpt><trkpt lat="43.642267" lon="11.440875"><ele>233.0</ele><time>2026-04-11T12:19:05.689Z</time></trkpt><trkpt lat="43.6423799" lon="11.440958"><ele>233.00000000000003</ele><time>2026-04-11T12:19:07.689Z</time></trkpt><trkpt lat="43.6424385" lon="11.4410028"><ele>233.0</ele><time>2026-04-11T12:19:08.689Z</time></trkpt><trkpt lat="43.6425072" lon="11.4410457"><ele>233.0</ele><time>2026-04-11T12:19:09.689Z</time></trkpt><trkpt lat="43.6425635" lon="11.4410854"><ele>233.0</ele><time>2026-04-11T12:19:10.689Z</time></trkpt><trkpt lat="43.642657" lon="11.441167"><ele>233.00000000000003</ele><time>2026-04-11T12:19:12.689Z</time></trkpt><trkpt lat="43.6427528" lon="11.4412729"><ele>233.0</ele><time>2026-04-11T12:19:14.689Z</time></trkpt><trkpt lat="43.6428449" lon="11.4414006"><ele>232.66666666666669</ele><time>2026-04-11T12:19:16.689Z</time></trkpt><trkpt lat="43.6428906" lon="11.4414658"><ele>232.33333333333334</ele><time>2026-04-11T12:19:17.689Z</time></trkpt><trkpt lat="43.642935" lon="11.44153"><ele>232.0</ele><time>2026-04-11T12:19:18.689Z</time></trkpt><trkpt lat="43.6430254" lon="11.4416518"><ele>231.66666666666669</ele><time>2026-04-11T12:19:20.689Z</time></trkpt><trkpt lat="43.6430675" lon="11.4417194"><ele>231.33333333333334</ele><time>2026-04-11T12:19:21.689Z</time></trkpt><trkpt lat="43.6431562" lon="11.4418282"><ele>231.0</ele><time>2026-04-11T12:19:23.689Z</time></trkpt><trkpt lat="43.6432516" lon="11.4419651"><ele>231.0</ele><time>2026-04-11T12:19:25.689Z</time></trkpt><trkpt lat="43.6433081" lon="11.4420379"><ele>231.0</ele><time>2026-04-11T12:19:26.689Z</time></trkpt><trkpt lat="43.643363" lon="11.4420913"><ele>231.0</ele><time>2026-04-11T12:19:27.689Z</time></trkpt><trkpt lat="43.6434157" lon="11.4421391"><ele>231.0</ele><time>2026-04-11T12:19:28.689Z</time></trkpt><trkpt lat="43.6435105" lon="11.4422185"><ele>231.0</ele><time>2026-04-11T12:19:30.689Z</time></trkpt><trkpt lat="43.6435971" lon="11.4423039"><ele>231.0</ele><time>2026-04-11T12:19:32.689Z</time></trkpt><trkpt lat="43.6436786" lon="11.4423914"><ele>231.33333333333334</ele><time>2026-04-11T12:19:34.689Z</time></trkpt><trkpt lat="43.6437218" lon="11.442455"><ele>231.66666666666669</ele><time>2026-04-11T12:19:35.689Z</time></trkpt><trkpt lat="43.6438126" lon="11.4425587"><ele>232.0</ele><time>2026-04-11T12:19:37.689Z</time></trkpt><trkpt lat="43.643894" lon="11.442651"><ele>232.33333333333334</ele><time>2026-04-11T12:19:39.689Z</time></trkpt><trkpt lat="43.6439351" lon="11.4427377"><ele>232.66666666666669</ele><time>2026-04-11T12:19:47.689Z</time></trkpt><trkpt lat="43.6439454" lon="11.4428364"><ele>233.0</ele><time>2026-04-11T12:19:51.689Z</time></trkpt><trkpt lat="43.6439578" lon="11.4429359"><ele>233.33333333333334</ele><time>2026-04-11T12:19:54.69Z</time></trkpt><trkpt lat="43.6439727" lon="11.4430582"><ele>233.66666666666669</ele><time>2026-04-11T12:19:58.689Z</time></trkpt><trkpt lat="43.6439871" lon="11.4431653"><ele>234.0</ele><time>2026-04-11T12:20:00.689Z</time></trkpt><trkpt lat="43.6439941" lon="11.4432662"><ele>234.33333333333331</ele><time>2026-04-11T12:20:02.689Z</time></trkpt><trkpt lat="43.6440078" lon="11.4433516"><ele>234.66666666666666</ele><time>2026-04-11T12:20:04.689Z</time></trkpt><trkpt lat="43.6440213" lon="11.4434554"><ele>235.0</ele><time>2026-04-11T12:20:06.689Z</time></trkpt><trkpt lat="43.644024" lon="11.4435717"><ele>234.99999999999997</ele><time>2026-04-11T12:20:08.689Z</time></trkpt><trkpt lat="43.6440231" lon="11.4436772"><ele>235.0</ele><time>2026-04-11T12:20:10.689Z</time></trkpt><trkpt lat="43.6440206" lon="11.4437909"><ele>235.0</ele><time>2026-04-11T12:20:12.689Z</time></trkpt><trkpt lat="43.6440216" lon="11.443914"><ele>235.0</ele><time>2026-04-11T12:20:14.689Z</time></trkpt><trkpt lat="43.6440326" lon="11.4440288"><ele>234.99999999999997</ele><time>2026-04-11T12:20:16.689Z</time></trkpt><trkpt lat="43.6440426" lon="11.4441256"><ele>235.0</ele><time>2026-04-11T12:20:18.689Z</time></trkpt><trkpt lat="43.6440532" lon="11.4442545"><ele>233.0</ele><time>2026-04-11T12:20:20.689Z</time></trkpt><trkpt lat="43.64407" lon="11.4443482"><ele>230.99999999999997</ele><time>2026-04-11T12:20:22.689Z</time></trkpt><trkpt lat="43.6440695" lon="11.4444582"><ele>229.0</ele><time>2026-04-11T12:20:24.689Z</time></trkpt><trkpt lat="43.644072" lon="11.4445689"><ele>227.0</ele><time>2026-04-11T12:20:26.689Z</time></trkpt><trkpt lat="43.6441198" lon="11.4446297"><ele>225.0</ele><time>2026-04-11T12:20:28.689Z</time></trkpt><trkpt lat="43.644193" lon="11.4446757"><ele>223.0</ele><time>2026-04-11T12:20:30.689Z</time></trkpt><trkpt lat="43.644256" lon="11.4447139"><ele>221.0</ele><time>2026-04-11T12:20:32.689Z</time></trkpt><trkpt lat="43.6443214" lon="11.4447544"><ele>217.8</ele><time>2026-04-11T12:20:34.689Z</time></trkpt><trkpt lat="43.6444021" lon="11.444778"><ele>214.60000000000002</ele><time>2026-04-11T12:20:36.689Z</time></trkpt><trkpt lat="43.6444877" lon="11.4448131"><ele>211.4</ele><time>2026-04-11T12:20:38.689Z</time></trkpt><trkpt lat="43.6445913" lon="11.4447985"><ele>208.2</ele><time>2026-04-11T12:20:40.689Z</time></trkpt><trkpt lat="43.6447028" lon="11.4447862"><ele>205.0</ele><time>2026-04-11T12:20:42.689Z</time></trkpt><trkpt lat="43.6448128" lon="11.4447668"><ele>205.0</ele><time>2026-04-11T12:20:44.689Z</time></trkpt><trkpt lat="43.6449199" lon="11.4447237"><ele>205.0</ele><time>2026-04-11T12:20:46.689Z</time></trkpt><trkpt lat="43.6450367" lon="11.4446995"><ele>205.0</ele><time>2026-04-11T12:20:48.689Z</time></trkpt><trkpt lat="43.6451441" lon="11.4446798"><ele>205.0</ele><time>2026-04-11T12:20:50.689Z</time></trkpt><trkpt lat="43.645263" lon="11.4446979"><ele>203.16666666666666</ele><time>2026-04-11T12:20:52.689Z</time></trkpt><trkpt lat="43.6453299" lon="11.4447094"><ele>201.33333333333331</ele><time>2026-04-11T12:20:53.689Z</time></trkpt><trkpt lat="43.645447" lon="11.4447424"><ele>199.5</ele><time>2026-04-11T12:20:55.689Z</time></trkpt><trkpt lat="43.6455624" lon="11.444781"><ele>197.66666666666669</ele><time>2026-04-11T12:20:57.689Z</time></trkpt><trkpt lat="43.6456258" lon="11.4448067"><ele>195.83333333333334</ele><time>2026-04-11T12:20:58.689Z</time></trkpt><trkpt lat="43.6456928" lon="11.4448308"><ele>194.0</ele><time>2026-04-11T12:20:59.689Z</time></trkpt><trkpt lat="43.6457577" lon="11.4448486"><ele>194.00000000000003</ele><time>2026-04-11T12:21:00.689Z</time></trkpt><trkpt lat="43.6458714" lon="11.4448517"><ele>194.0</ele><time>2026-04-11T12:21:02.689Z</time></trkpt><trkpt lat="43.6459374" lon="11.444839"><ele>194.0</ele><time>2026-04-11T12:21:03.689Z</time></trkpt><trkpt lat="43.6460061" lon="11.4448148"><ele>194.0</ele><time>2026-04-11T12:21:04.689Z</time></trkpt><trkpt lat="43.6460706" lon="11.4447837"><ele>194.00000000000003</ele><time>2026-04-11T12:21:05.689Z</time></trkpt><trkpt lat="43.6461313" lon="11.4447473"><ele>194.0</ele><time>2026-04-11T12:21:06.689Z</time></trkpt><trkpt lat="43.6461897" lon="11.4447073"><ele>192.79999999999998</ele><time>2026-04-11T12:21:07.689Z</time></trkpt><trkpt lat="43.646245" lon="11.4446549"><ele>191.6</ele><time>2026-04-11T12:21:08.689Z</time></trkpt><trkpt lat="43.6463456" lon="11.4445889"><ele>190.4</ele><time>2026-04-11T12:21:10.689Z</time></trkpt><trkpt lat="43.6464532" lon="11.4445683"><ele>189.2</ele><time>2026-04-11T12:21:12.689Z</time></trkpt><trkpt lat="43.6465478" lon="11.4446037"><ele>188.0</ele><time>2026-04-11T12:21:14.689Z</time></trkpt><trkpt lat="43.6466234" lon="11.4447086"><ele>186.8</ele><time>2026-04-11T12:21:16.689Z</time></trkpt><trkpt lat="43.6466603" lon="11.444846"><ele>185.60000000000002</ele><time>2026-04-11T12:21:18.689Z</time></trkpt><trkpt lat="43.6466687" lon="11.4449741"><ele>184.39999999999998</ele><time>2026-04-11T12:21:20.689Z</time></trkpt><trkpt lat="43.6466122" lon="11.4450623"><ele>183.2</ele><time>2026-04-11T12:21:22.689Z</time></trkpt><trkpt lat="43.6465183" lon="11.445093"><ele>182.0</ele><time>2026-04-11T12:21:24.689Z</time></trkpt><trkpt lat="43.6464197" lon="11.4451129"><ele>182.0</ele><time>2026-04-11T12:21:26.689Z</time></trkpt><trkpt lat="43.6463194" lon="11.4451321"><ele>182.0</ele><time>2026-04-11T12:21:28.689Z</time></trkpt><trkpt lat="43.6462242" lon="11.445171"><ele>182.0</ele><time>2026-04-11T12:21:30.689Z</time></trkpt><trkpt lat="43.6461322" lon="11.4452268"><ele>182.0</ele><time>2026-04-11T12:21:32.689Z</time></trkpt><trkpt lat="43.6460391" lon="11.4452929"><ele>182.0</ele><time>2026-04-11T12:21:34.689Z</time></trkpt><trkpt lat="43.6459534" lon="11.4453791"><ele>182.6</ele><time>2026-04-11T12:21:36.689Z</time></trkpt><trkpt lat="43.6458826" lon="11.4454841"><ele>183.2</ele><time>2026-04-11T12:21:38.689Z</time></trkpt><trkpt lat="43.645853" lon="11.4456266"><ele>183.8</ele><time>2026-04-11T12:21:40.689Z</time></trkpt><trkpt lat="43.6458338" lon="11.445764"><ele>184.4</ele><time>2026-04-11T12:21:42.689Z</time></trkpt><trkpt lat="43.6458347" lon="11.4459072"><ele>185.0</ele><time>2026-04-11T12:21:44.689Z</time></trkpt><trkpt lat="43.6458613" lon="11.4460473"><ele>185.0</ele><time>2026-04-11T12:21:46.689Z</time></trkpt><trkpt lat="43.6459082" lon="11.4461672"><ele>185.0</ele><time>2026-04-11T12:21:48.689Z</time></trkpt><trkpt lat="43.6459864" lon="11.4462809"><ele>185.0</ele><time>2026-04-11T12:21:50.689Z</time></trkpt><trkpt lat="43.6460592" lon="11.4463937"><ele>185.0</ele><time>2026-04-11T12:21:52.689Z</time></trkpt><trkpt lat="43.6461658" lon="11.4464876"><ele>185.0</ele><time>2026-04-11T12:21:54.689Z</time></trkpt><trkpt lat="43.646224" lon="11.4465266"><ele>181.0</ele><time>2026-04-11T12:21:55.689Z</time></trkpt><trkpt lat="43.646284" lon="11.446569"><ele>177.0</ele><time>2026-04-11T12:21:56.689Z</time></trkpt><trkpt lat="43.6463833" lon="11.4466587"><ele>173.0</ele><time>2026-04-11T12:21:58.689Z</time></trkpt><trkpt lat="43.6464778" lon="11.4467513"><ele>169.0</ele><time>2026-04-11T12:22:00.689Z</time></trkpt><trkpt lat="43.6465726" lon="11.4468436"><ele>165.0</ele><time>2026-04-11T12:22:02.689Z</time></trkpt><trkpt lat="43.6466564" lon="11.4469359"><ele>165.0</ele><time>2026-04-11T12:22:04.689Z</time></trkpt><trkpt lat="43.6467254" lon="11.4470749"><ele>165.0</ele><time>2026-04-11T12:22:06.689Z</time></trkpt><trkpt lat="43.646787" lon="11.4472163"><ele>165.0</ele><time>2026-04-11T12:22:08.689Z</time></trkpt><trkpt lat="43.6468346" lon="11.4473617"><ele>165.0</ele><time>2026-04-11T12:22:10.689Z</time></trkpt><trkpt lat="43.6468636" lon="11.4475237"><ele>164.5</ele><time>2026-04-11T12:22:12.689Z</time></trkpt><trkpt lat="43.6468637" lon="11.4476182"><ele>164.0</ele><time>2026-04-11T12:22:13.689Z</time></trkpt><trkpt lat="43.6468653" lon="11.4477074"><ele>163.5</ele><time>2026-04-11T12:22:14.689Z</time></trkpt><trkpt lat="43.6468634" lon="11.4477987"><ele>163.0</ele><time>2026-04-11T12:22:15.689Z</time></trkpt><trkpt lat="43.6468497" lon="11.4479645"><ele>162.5</ele><time>2026-04-11T12:22:17.689Z</time></trkpt><trkpt lat="43.6468237" lon="11.4481218"><ele>162.0</ele><time>2026-04-11T12:22:19.689Z</time></trkpt><trkpt lat="43.6467975" lon="11.4482032"><ele>160.0</ele><time>2026-04-11T12:22:20.689Z</time></trkpt><trkpt lat="43.6467626" lon="11.4482778"><ele>158.0</ele><time>2026-04-11T12:22:21.689Z</time></trkpt><trkpt lat="43.6466826" lon="11.448403"><ele>156.0</ele><time>2026-04-11T12:22:23.689Z</time></trkpt><trkpt lat="43.6465986" lon="11.4485256"><ele>154.0</ele><time>2026-04-11T12:22:25.689Z</time></trkpt><trkpt lat="43.6465192" lon="11.4486413"><ele>152.0</ele><time>2026-04-11T12:22:27.689Z</time></trkpt><trkpt lat="43.6464244" lon="11.4487077"><ele>152.0</ele><time>2026-04-11T12:22:29.689Z</time></trkpt><trkpt lat="43.6463117" lon="11.448667"><ele>152.0</ele><time>2026-04-11T12:22:31.689Z</time></trkpt><trkpt lat="43.6451774" lon="11.4502596"><ele>147.0</ele><time>2026-04-11T12:23:07.689Z</time></trkpt><trkpt lat="43.6450716" lon="11.4502584"><ele>142.0</ele><time>2026-04-11T12:23:08.689Z</time></trkpt><trkpt lat="43.6449768" lon="11.4502553"><ele>137.0</ele><time>2026-04-11T12:23:09.689Z</time></trkpt><trkpt lat="43.6448921" lon="11.450267"><ele>132.0</ele><time>2026-04-11T12:23:10.69Z</time></trkpt><trkpt lat="43.6448091" lon="11.4502728"><ele>127.0</ele><time>2026-04-11T12:23:11.689Z</time></trkpt><trkpt lat="43.6447196" lon="11.4502785"><ele>127.0</ele><time>2026-04-11T12:23:12.689Z</time></trkpt><trkpt lat="43.6446473" lon="11.4502888"><ele>126.99999999999999</ele><time>2026-04-11T12:23:13.689Z</time></trkpt><trkpt lat="43.644573" lon="11.4503809"><ele>126.99999999999999</ele><time>2026-04-11T12:23:15.69Z</time></trkpt><trkpt lat="43.6444548" lon="11.4502139"><ele>127.0</ele><time>2026-04-11T12:23:20.689Z</time></trkpt><trkpt lat="43.644406" lon="11.4501466"><ele>127.0</ele><time>2026-04-11T12:23:21.689Z</time></trkpt><trkpt lat="43.6443178" lon="11.4501381"><ele>127.0</ele><time>2026-04-11T12:23:22.689Z</time></trkpt><trkpt lat="43.6442305" lon="11.4501554"><ele>126.99999999999999</ele><time>2026-04-11T12:23:23.689Z</time></trkpt><trkpt lat="43.644142" lon="11.4501752"><ele>126.99999999999999</ele><time>2026-04-11T12:23:24.689Z</time></trkpt><trkpt lat="43.6440372" lon="11.4501832"><ele>127.0</ele><time>2026-04-11T12:23:25.689Z</time></trkpt><trkpt lat="43.6439234" lon="11.4501897"><ele>127.0</ele><time>2026-04-11T12:23:26.689Z</time></trkpt><trkpt lat="43.6438119" lon="11.4502046"><ele>127.00000000000001</ele><time>2026-04-11T12:23:27.689Z</time></trkpt><trkpt lat="43.6437105" lon="11.4502111"><ele>127.0</ele><time>2026-04-11T12:23:28.689Z</time></trkpt><trkpt lat="43.6436235" lon="11.4502329"><ele>127.0</ele><time>2026-04-11T12:23:29.689Z</time></trkpt><trkpt lat="43.6435466" lon="11.4502542"><ele>127.0</ele><time>2026-04-11T12:23:30.689Z</time></trkpt><trkpt lat="43.6434711" lon="11.4502655"><ele>127.00000000000001</ele><time>2026-04-11T12:23:31.689Z</time></trkpt><trkpt lat="43.6433795" lon="11.4502577"><ele>127.0</ele><time>2026-04-11T12:23:33.689Z</time></trkpt><trkpt lat="43.6433677" lon="11.4501484"><ele>126.0</ele><time>2026-04-11T12:23:35.689Z</time></trkpt><trkpt lat="43.6434083" lon="11.4500759"><ele>126.0</ele><time>2026-04-11T12:23:36.689Z</time></trkpt></trkseg></trk></gpx>